Time;durP1;ratioP1;P1;durP2;ratioP2;P2;SDS_P1;SDS_P2;PMS_P1;PMS_P2;Temp;Humidity;BMP_temperature;BMP_pressure;BME280_temperature;BME280_humidity;BME280_pressure;Samples;Min_cycle;Max_cycle;Signal;HPM_P1;HPM_P2
2022/05/17 00:01:14;;;;;;;2.53;0.88;;;25.40;41.70;;;;;;5124485;27;20465;-46
2022/05/17 00:03:40;;;;;;;3.13;1.27;;;25.40;41.70;;;;;;5141649;27;20015;-42
2022/05/17 00:06:06;;;;;;;2.92;1.20;;;25.40;41.70;;;;;;5142325;27;20019;-43
2022/05/17 00:08:33;;;;;;;2.38;1.10;;;25.40;41.70;;;;;;5142907;27;20014;-45
2022/05/17 00:10:59;;;;;;;2.92;1.10;;;25.40;41.70;;;;;;5141646;27;20022;-40
2022/05/17 00:13:24;;;;;;;3.08;1.25;;;25.40;41.70;;;;;;5142005;27;20015;-43
2022/05/17 00:15:54;;;;;;;2.72;1.10;;;25.40;41.80;;;;;;5142627;27;20012;-41
2022/05/17 00:18:21;;;;;;;5.32;1.42;;;25.40;41.70;;;;;;5141535;27;20015;-45
2022/05/17 00:20:46;;;;;;;3.70;1.30;;;25.40;41.80;;;;;;5141576;27;20031;-44
2022/05/17 00:23:15;;;;;;;3.58;1.23;;;25.40;41.70;;;;;;5140500;27;20121;-41
2022/05/17 00:25:40;;;;;;;3.33;1.10;;;25.40;41.80;;;;;;5140700;27;20007;-41
2022/05/17 00:28:06;;;;;;;3.50;1.30;;;25.40;41.70;;;;;;5142393;27;20016;-43
2022/05/17 00:30:32;;;;;;;2.17;1.00;;;25.40;41.80;;;;;;5140355;27;20038;-42
2022/05/17 00:32:58;;;;;;;2.55;1.20;;;25.40;41.80;;;;;;5140322;27;20071;-44
2022/05/17 00:35:24;;;;;;;2.80;1.17;;;25.40;41.80;;;;;;5139636;27;20020;-40
2022/05/17 00:37:49;;;;;;;3.13;1.35;;;25.30;41.70;;;;;;5140538;27;20529;-41
2022/05/17 00:40:16;;;;;;;3.22;1.45;;;25.40;41.80;;;;;;5138799;27;20019;-41
2022/05/17 00:42:42;;;;;;;2.53;1.20;;;25.40;41.80;;;;;;5139876;27;20008;-43
2022/05/17 00:45:09;;;;;;;3.03;1.23;;;25.40;41.80;;;;;;5139551;27;20027;-39
2022/05/17 00:47:45;;;;;;;2.13;1.10;;;25.30;41.80;;;;;;5140065;27;20026;-41
2022/05/17 00:50:27;;;;;;;3.40;1.15;;;25.30;41.80;;;;;;5138860;27;20037;-41
2022/05/17 00:53:07;;;;;;;3.60;1.20;;;25.40;41.90;;;;;;5138945;28;20077;-41
2022/05/17 00:55:47;;;;;;;4.10;1.30;;;25.40;41.90;;;;;;5138169;28;20479;-41
2022/05/17 00:58:33;;;;;;;3.15;1.30;;;25.30;41.80;;;;;;5138109;28;20027;-41
2022/05/17 01:01:06;;;;;;;2.30;1.10;;;25.30;41.80;;;;;;5139353;27;20037;-42
2022/05/17 01:03:50;;;;;;;3.35;1.10;;;25.40;41.90;;;;;;5121796;28;20008;-43
2022/05/17 01:06:16;;;;;;;3.85;1.27;;;25.30;41.90;;;;;;5139094;27;20537;-40
2022/05/17 01:08:41;;;;;;;2.75;1.50;;;25.30;41.90;;;;;;5137300;28;20043;-42
2022/05/17 01:11:07;;;;;;;2.88;1.15;;;25.30;41.90;;;;;;5120116;28;20019;-41
2022/05/17 01:16:17;;;;;;;2.50;1.10;;;25.30;41.80;;;;;;5136910;28;20076;-43
2022/05/17 01:18:43;;;;;;;3.28;1.30;;;25.30;42.40;;;;;;5136866;27;20542;-41
2022/05/17 01:21:10;;;;;;;3.50;1.13;;;25.30;41.90;;;;;;5136907;28;20039;-42
2022/05/17 01:23:36;;;;;;;2.42;1.10;;;25.30;41.90;;;;;;5138664;27;20019;-42
2022/05/17 01:26:03;;;;;;;3.95;1.40;;;25.30;41.90;;;;;;5138200;28;20473;-40
2022/05/17 01:28:34;;;;;;;2.65;1.08;;;25.30;41.90;;;;;;5136835;28;20045;-43
2022/05/17 01:31:04;;;;;;;1.75;1.10;;;25.30;41.90;;;;;;5137155;28;20019;-42
2022/05/17 01:33:31;;;;;;;2.00;1.00;;;25.30;41.90;;;;;;5138060;27;21963;-47
2022/05/17 01:35:56;;;;;;;3.45;1.10;;;25.30;41.90;;;;;;5137584;27;20007;-41
2022/05/17 01:38:22;;;;;;;4.90;1.25;;;25.30;41.90;;;;;;5135641;28;20023;-40
2022/05/17 01:40:48;;;;;;;2.80;1.10;;;25.30;42.40;;;;;;5137123;28;20489;-41
2022/05/17 01:43:13;;;;;;;3.35;1.30;;;25.30;41.90;;;;;;5137488;28;20016;-44
2022/05/17 01:45:39;;;;;;;2.88;1.20;;;25.30;41.90;;;;;;5138292;27;20028;-43
2022/05/17 01:48:05;;;;;;;3.15;1.15;;;25.30;41.90;;;;;;5137021;28;20038;-40
2022/05/17 01:50:31;;;;;;;2.03;1.00;;;25.30;41.90;;;;;;5137696;28;20466;-41
2022/05/17 01:52:57;;;;;;;2.60;1.10;;;25.20;41.80;;;;;;5139324;28;20015;-42
2022/05/17 01:55:24;;;;;;;3.42;1.20;;;25.30;41.90;;;;;;5138616;27;20027;-42
2022/05/17 01:57:49;;;;;;;3.10;1.10;;;25.30;41.90;;;;;;5140341;27;20007;-42
2022/05/17 02:00:16;;;;;;;2.17;1.00;;;25.20;41.90;;;;;;5140741;27;20012;-43
2022/05/17 02:02:42;;;;;;;2.70;1.30;;;25.30;41.90;;;;;;5141970;27;20492;-41
2022/05/17 02:05:08;;;;;;;2.60;1.20;;;25.20;41.90;;;;;;5141500;27;20019;-41
2022/05/17 02:07:34;;;;;;;3.05;1.30;;;25.20;41.90;;;;;;5141613;27;20034;-43
2022/05/17 02:10:00;;;;;;;2.33;1.13;;;25.20;41.90;;;;;;5140397;27;20016;-42
2022/05/17 02:12:26;;;;;;;3.95;1.10;;;25.30;42.00;;;;;;5141644;27;20042;-43
2022/05/17 02:14:54;;;;;;;2.33;1.10;;;25.20;42.00;;;;;;5140852;27;20055;-42
2022/05/17 02:17:20;;;;;;;2.72;1.00;;;25.30;42.00;;;;;;5141573;27;20018;-44
2022/05/17 02:19:46;;;;;;;3.75;1.10;;;25.30;42.00;;;;;;5143006;27;20016;-45
2022/05/17 02:22:12;;;;;;;2.92;1.10;;;25.20;41.90;;;;;;5142149;27;20047;-43
2022/05/17 02:24:38;;;;;;;2.55;1.00;;;25.20;42.00;;;;;;5141653;27;20167;-42
2022/05/17 02:27:04;;;;;;;3.30;1.23;;;25.20;42.00;;;;;;5140777;27;20015;-45
2022/05/17 02:29:30;;;;;;;3.17;1.23;;;25.20;42.00;;;;;;5140519;27;20008;-42
2022/05/17 02:31:56;;;;;;;2.38;1.10;;;25.20;42.10;;;;;;5140097;27;20023;-40
2022/05/17 02:34:22;;;;;;;2.45;0.98;;;25.20;42.10;;;;;;5139167;27;20071;-43
2022/05/17 02:36:48;;;;;;;3.08;1.20;;;25.20;42.10;;;;;;5139961;27;20106;-44
2022/05/17 02:39:14;;;;;;;1.63;1.00;;;25.20;42.20;;;;;;5138686;27;20026;-44
2022/05/17 02:41:39;;;;;;;3.38;1.15;;;25.20;42.20;;;;;;5140094;27;20019;-44
2022/05/17 02:44:05;;;;;;;3.10;1.10;;;25.20;42.20;;;;;;5138914;27;20090;-42
2022/05/17 02:46:31;;;;;;;4.07;1.25;;;25.20;42.30;;;;;;5139004;27;20022;-44
2022/05/17 02:48:58;;;;;;;1.75;0.88;;;25.20;42.30;;;;;;5139174;27;20019;-41
2022/05/17 02:51:24;;;;;;;2.78;1.10;;;25.20;42.30;;;;;;5140570;27;20019;-43
2022/05/17 02:53:49;;;;;;;1.98;1.10;;;25.20;42.40;;;;;;5123675;27;20094;-45
2022/05/17 02:56:15;;;;;;;2.67;1.08;;;25.10;42.30;;;;;;5140853;27;20015;-42
2022/05/17 02:58:41;;;;;;;2.42;1.20;;;25.20;42.40;;;;;;5141848;27;20026;-44
2022/05/17 03:01:07;;;;;;;3.58;1.15;;;25.20;42.40;;;;;;5140745;27;20026;-42
2022/05/17 03:03:35;;;;;;;2.63;1.10;;;25.10;42.40;;;;;;5141536;27;20377;-42
2022/05/17 03:06:01;;;;;;;2.38;0.93;;;25.20;42.50;;;;;;5140219;27;20025;-42
2022/05/17 03:08:27;;;;;;;4.30;1.27;;;25.10;42.40;;;;;;5140242;27;20494;-42
2022/05/17 03:10:53;;;;;;;2.63;1.20;;;25.10;43.00;;;;;;5140442;27;20015;-41
2022/05/17 03:13:19;;;;;;;2.25;1.00;;;25.10;42.50;;;;;;5140180;27;20106;-41
2022/05/17 03:15:45;;;;;;;4.18;1.20;;;25.10;42.50;;;;;;5140489;27;20441;-40
2022/05/17 03:18:11;;;;;;;2.25;1.02;;;25.10;42.50;;;;;;5140441;27;20462;-43
2022/05/17 03:20:37;;;;;;;2.50;1.10;;;25.10;42.50;;;;;;5139596;27;20035;-44
2022/05/17 03:23:03;;;;;;;3.22;1.08;;;25.10;42.50;;;;;;5139480;27;20599;-43
2022/05/17 03:25:29;;;;;;;3.33;1.30;;;25.10;42.50;;;;;;5139261;27;20035;-43
2022/05/17 03:27:55;;;;;;;4.68;1.30;;;25.10;42.60;;;;;;5140633;27;20018;-43
2022/05/17 03:30:22;;;;;;;2.40;1.02;;;25.10;42.60;;;;;;5139883;27;20034;-41
2022/05/17 03:32:47;;;;;;;2.72;1.15;;;25.10;42.70;;;;;;5139503;27;20019;-44
2022/05/17 03:35:13;;;;;;;2.67;1.27;;;25.10;42.70;;;;;;5140298;27;20024;-42
2022/05/17 03:37:40;;;;;;;2.78;1.27;;;25.10;42.70;;;;;;5139571;27;20031;-42
2022/05/17 03:40:11;;;;;;;2.60;1.23;;;25.10;42.80;;;;;;5140246;27;20016;-42
2022/05/17 03:42:37;;;;;;;2.15;1.10;;;25.10;42.80;;;;;;5138891;27;20049;-44
2022/05/17 03:45:04;;;;;;;2.88;1.00;;;25.10;42.80;;;;;;5139512;27;20023;-47
2022/05/17 03:47:30;;;;;;;3.67;1.30;;;25.10;43.00;;;;;;5137778;27;20019;-42
2022/05/17 03:49:56;;;;;;;2.88;1.10;;;25.10;43.00;;;;;;5137614;27;20023;-43
2022/05/17 03:52:26;;;;;;;3.20;0.93;;;25.10;43.00;;;;;;5138380;27;20079;-41
2022/05/17 03:54:56;;;;;;;2.67;1.00;;;25.10;43.00;;;;;;5139043;27;20051;-42
2022/05/17 03:57:23;;;;;;;2.70;1.00;;;25.10;43.10;;;;;;5139262;27;20019;-45
2022/05/17 03:59:49;;;;;;;2.15;1.20;;;25.10;43.10;;;;;;5140138;27;20157;-42
2022/05/17 04:02:15;;;;;;;2.80;1.00;;;25.00;43.10;;;;;;5139714;27;20015;-42
2022/05/17 04:04:41;;;;;;;2.58;1.10;;;25.10;43.20;;;;;;5121150;27;20358;-42
2022/05/17 04:07:08;;;;;;;3.50;1.08;;;25.10;43.30;;;;;;5139438;27;20065;-43
2022/05/17 04:09:33;;;;;;;2.85;1.10;;;25.10;43.30;;;;;;5139040;27;20493;-41
2022/05/17 04:11:59;;;;;;;2.80;1.20;;;25.00;43.30;;;;;;5140629;27;20041;-44
2022/05/17 04:14:25;;;;;;;2.53;1.10;;;25.10;43.40;;;;;;5120909;27;20027;-45
2022/05/17 04:16:50;;;;;;;3.10;1.10;;;25.10;43.40;;;;;;5140136;27;20016;-41
2022/05/17 04:19:16;;;;;;;3.45;1.10;;;25.00;43.40;;;;;;5139716;27;20359;-46
2022/05/17 04:21:43;;;;;;;3.08;1.40;;;25.10;43.60;;;;;;5137570;27;20043;-42
2022/05/17 04:24:09;;;;;;;4.07;1.10;;;25.10;43.60;;;;;;5139852;27;20023;-43
2022/05/17 04:26:36;;;;;;;1.98;0.88;;;25.00;43.60;;;;;;5139895;27;20019;-42
2022/05/17 04:29:03;;;;;;;2.67;1.10;;;25.10;43.70;;;;;;5140607;27;20531;-41
2022/05/17 04:31:29;;;;;;;2.35;1.40;;;25.10;43.80;;;;;;5140487;27;20065;-40
2022/05/17 04:33:56;;;;;;;3.25;1.27;;;25.00;43.80;;;;;;5140555;27;20054;-43
2022/05/17 04:36:21;;;;;;;4.18;1.50;;;25.10;43.90;;;;;;5139065;27;20023;-45
2022/05/17 04:38:47;;;;;;;2.78;1.17;;;25.00;43.90;;;;;;5140798;27;20071;-44
2022/05/17 04:41:13;;;;;;;3.80;1.15;;;25.00;43.90;;;;;;5139933;27;20011;-41
2022/05/17 04:43:40;;;;;;;2.63;1.10;;;25.00;44.00;;;;;;5139426;27;20045;-45
2022/05/17 04:46:08;;;;;;;2.67;1.17;;;25.10;44.10;;;;;;5140299;27;20027;-40
2022/05/17 04:48:35;;;;;;;2.10;1.10;;;25.00;44.10;;;;;;5140620;27;20057;-41
2022/05/17 04:51:08;;;;;;;2.97;1.20;;;25.00;44.20;;;;;;5140460;27;20019;-48
2022/05/17 04:53:35;;;;;;;2.70;1.10;;;25.00;44.20;;;;;;5139984;27;20094;-47
2022/05/17 04:56:01;;;;;;;2.50;1.20;;;25.00;44.80;;;;;;5140634;27;20088;-41
2022/05/17 04:58:27;;;;;;;3.45;1.30;;;25.00;44.30;;;;;;5140026;28;20003;-44
2022/05/17 05:00:53;;;;;;;2.67;0.95;;;25.00;44.40;;;;;;5139740;28;20021;-46
2022/05/17 05:03:19;;;;;;;3.20;1.27;;;25.00;44.40;;;;;;5139806;27;20043;-45
2022/05/17 05:05:47;;;;;;;2.70;1.08;;;25.00;44.50;;;;;;5139971;27;20088;-41
2022/05/17 05:08:14;;;;;;;3.15;1.58;;;25.00;44.50;;;;;;5138773;28;20018;-48
2022/05/17 05:10:42;;;;;;;3.15;1.23;;;25.00;44.60;;;;;;5139387;28;20453;-45
2022/05/17 05:13:13;;;;;;;2.67;1.08;;;25.00;44.60;;;;;;5137829;28;20025;-39
2022/05/17 05:15:39;;;;;;;3.97;1.20;;;25.00;44.60;;;;;;5137697;28;20015;-44
2022/05/17 05:18:06;;;;;;;6.15;1.35;;;25.00;44.90;;;;;;5138791;28;20049;-42
2022/05/17 05:20:32;;;;;;;3.50;1.23;;;25.00;44.70;;;;;;5140650;28;20023;-42
2022/05/17 05:22:58;;;;;;;3.40;1.52;;;25.00;44.70;;;;;;5140519;28;20019;-41
2022/05/17 05:25:24;;;;;;;3.97;1.33;;;25.00;44.80;;;;;;5121341;28;20631;-48
2022/05/17 05:27:50;;;;;;;1.67;1.10;;;25.00;44.80;;;;;;5137776;28;20450;-41
2022/05/17 05:30:18;;;;;;;3.90;1.40;;;25.00;44.80;;;;;;5137610;28;20063;-42
2022/05/17 05:32:46;;;;;;;2.47;1.17;;;25.00;44.90;;;;;;5141219;27;20550;-42
2022/05/17 05:35:13;;;;;;;3.00;1.40;;;25.00;44.90;;;;;;5140761;27;20481;-40
2022/05/17 05:37:40;;;;;;;2.13;1.20;;;25.00;45.00;;;;;;5139518;27;20023;-41
2022/05/17 05:40:07;;;;;;;2.38;1.15;;;25.00;45.00;;;;;;5140552;27;20012;-44
2022/05/17 05:42:32;;;;;;;2.88;1.20;;;25.00;45.00;;;;;;5140879;27;20486;-41
2022/05/17 05:44:58;;;;;;;4.60;1.20;;;25.00;45.00;;;;;;5141215;27;20027;-40
2022/05/17 05:47:24;;;;;;;3.22;1.20;;;25.00;45.10;;;;;;5141257;27;20019;-44
2022/05/17 05:49:50;;;;;;;5.43;1.48;;;25.00;45.10;;;;;;5141605;27;20022;-43
2022/05/17 05:52:16;;;;;;;6.90;1.80;;;24.70;46.20;;;;;;5123555;27;20513;-40
2022/05/17 05:54:41;;;;;;;5.32;1.35;;;24.40;47.80;;;;;;5139915;27;20426;-41
2022/05/17 05:57:08;;;;;;;3.97;1.35;;;24.20;48.50;;;;;;5122202;27;20054;-39
2022/05/17 05:59:34;;;;;;;6.03;1.60;;;24.10;49.10;;;;;;5138154;27;20007;-39
2022/05/17 06:02:00;;;;;;;5.47;1.63;;;24.10;49.20;;;;;;5138175;27;20427;-39
2022/05/17 06:04:27;;;;;;;4.75;1.75;;;24.00;49.40;;;;;;5138833;27;20051;-39
2022/05/17 06:06:54;;;;;;;5.63;1.70;;;23.90;49.90;;;;;;5136380;27;20021;-37
2022/05/17 06:09:20;;;;;;;5.25;1.73;;;23.80;50.20;;;;;;5135902;27;20106;-37
2022/05/17 06:11:46;;;;;;;9.25;2.30;;;23.80;50.20;;;;;;5136724;27;20086;-37
2022/05/17 06:14:12;;;;;;;9.30;2.40;;;23.70;50.20;;;;;;5136915;27;20058;-37
2022/05/17 06:16:38;;;;;;;8.88;2.28;;;23.80;50.00;;;;;;5118365;27;20019;-38
2022/05/17 06:19:04;;;;;;;17.40;2.40;;;23.90;49.70;;;;;;5135677;27;20464;-38
2022/05/17 06:21:32;;;;;;;9.10;2.42;;;24.00;49.30;;;;;;5131975;27;20256;-37
2022/05/17 06:23:57;;;;;;;19.92;3.00;;;23.90;49.60;;;;;;5136811;27;20084;-37
2022/05/17 06:26:23;;;;;;;25.13;2.78;;;23.80;51.40;;;;;;5136658;27;20485;-38
2022/05/17 06:28:50;;;;;;;20.15;2.50;;;23.80;52.00;;;;;;5118353;27;20420;-37
2022/05/17 06:31:15;;;;;;;17.55;2.45;;;23.90;51.00;;;;;;5136165;27;20007;-36
2022/05/17 06:33:42;;;;;;;10.85;2.50;;;23.90;50.60;;;;;;5135819;27;20034;-37
2022/05/17 06:36:08;;;;;;;13.63;2.50;;;23.90;50.60;;;;;;5135487;27;20027;-37
2022/05/17 06:38:34;;;;;;;16.10;2.85;;;23.90;49.90;;;;;;5135934;27;20491;-37
2022/05/17 06:41:00;;;;;;;15.98;2.80;;;24.00;49.60;;;;;;5136497;27;20023;-38
2022/05/17 06:43:29;;;;;;;12.07;2.33;;;24.00;49.30;;;;;;5134992;27;20492;-37
2022/05/17 06:45:55;;;;;;;16.60;2.65;;;23.90;49.50;;;;;;5135781;27;20451;-37
2022/05/17 06:48:21;;;;;;;10.45;1.98;;;23.80;49.80;;;;;;5136380;27;20023;-37
2022/05/17 06:50:48;;;;;;;12.63;2.65;;;23.60;50.10;;;;;;5134872;27;20690;-37
2022/05/17 06:53:14;;;;;;;12.93;2.53;;;23.50;50.20;;;;;;5135941;27;20027;-36
2022/05/17 06:55:42;;;;;;;12.52;2.40;;;23.60;50.10;;;;;;5134257;27;20019;-36
2022/05/17 06:58:11;;;;;;;25.58;3.63;;;23.50;50.40;;;;;;5135582;27;20019;-36
2022/05/17 07:00:37;;;;;;;33.53;3.53;;;23.60;50.30;;;;;;5135779;27;20141;-35
2022/05/17 07:03:03;;;;;;;29.85;3.08;;;23.60;50.30;;;;;;5135570;27;20047;-37
2022/05/17 07:05:29;;;;;;;27.00;3.00;;;23.60;50.40;;;;;;5134284;27;20026;-37
2022/05/17 07:07:59;;;;;;;27.85;3.15;;;23.50;50.80;;;;;;5134070;27;20121;-40
2022/05/17 07:13:14;;;;;;;22.52;2.75;;;23.40;50.80;;;;;;5135296;27;20161;-38
2022/05/17 07:15:47;;;;;;;22.38;3.45;;;23.60;50.50;;;;;;5132992;27;20102;-38
2022/05/17 07:18:15;;;;;;;24.20;3.10;;;23.70;50.20;;;;;;5135012;27;20016;-38
2022/05/17 07:20:41;;;;;;;14.57;2.33;;;23.70;50.00;;;;;;5136405;27;20034;-41
2022/05/17 07:23:07;;;;;;;22.08;2.88;;;23.80;49.70;;;;;;5136109;27;20015;-40
2022/05/17 07:25:33;;;;;;;11.23;2.40;;;23.80;49.60;;;;;;5136685;27;20011;-38
2022/05/17 07:28:00;;;;;;;14.18;2.53;;;23.90;49.50;;;;;;5136698;27;20034;-38
2022/05/17 07:30:26;;;;;;;14.02;2.53;;;23.90;49.30;;;;;;5135831;27;20079;-38
2022/05/17 07:32:54;;;;;;;13.98;2.47;;;24.00;49.10;;;;;;5118820;27;20098;-42
2022/05/17 07:35:20;;;;;;;11.65;2.63;;;24.00;49.10;;;;;;5135854;27;20451;-38
2022/05/17 07:37:46;;;;;;;10.40;2.03;;;24.00;49.10;;;;;;5135940;27;20385;-39
2022/05/17 07:40:12;;;;;;;12.40;2.53;;;24.00;49.00;;;;;;5135569;27;20040;-38
2022/05/17 07:42:40;;;;;;;9.70;2.22;;;24.00;49.10;;;;;;5135715;27;20015;-38
2022/05/17 07:45:06;;;;;;;13.25;2.75;;;24.00;49.10;;;;;;5135720;27;20011;-37
2022/05/17 07:47:33;;;;;;;9.18;2.22;;;24.10;48.80;;;;;;5135247;27;20023;-37
2022/05/17 07:49:59;;;;;;;10.82;2.58;;;24.10;48.70;;;;;;5134779;27;20019;-39
2022/05/17 07:52:25;;;;;;;12.30;3.03;;;24.30;48.40;;;;;;5135221;27;20015;-36
2022/05/17 07:54:52;;;;;;;9.65;2.50;;;24.30;48.40;;;;;;5135732;27;20102;-37
2022/05/17 07:57:19;;;;;;;10.98;2.60;;;24.30;48.60;;;;;;5135906;27;20035;-37
2022/05/17 07:59:45;;;;;;;8.75;2.47;;;24.40;48.30;;;;;;5133964;27;20445;-37
2022/05/17 08:02:11;;;;;;;9.57;2.40;;;24.30;48.40;;;;;;5135029;27;20073;-37
2022/05/17 08:04:38;;;;;;;9.25;2.20;;;24.30;48.60;;;;;;5115141;27;20212;-38
2022/05/17 08:07:04;;;;;;;9.07;2.40;;;24.40;48.20;;;;;;5133919;27;20026;-37
2022/05/17 08:09:30;;;;;;;8.57;2.40;;;24.70;47.70;;;;;;5132311;27;20030;-37
2022/05/17 08:11:56;;;;;;;7.90;2.00;;;24.90;47.20;;;;;;5132016;27;20063;-38
2022/05/17 08:14:22;;;;;;;11.43;2.20;;;25.00;46.90;;;;;;5133402;27;20065;-37
2022/05/17 08:16:48;;;;;;;8.27;2.00;;;25.10;46.60;;;;;;5134131;27;20482;-40
2022/05/17 08:19:14;;;;;;;5.57;1.80;;;25.30;46.40;;;;;;5134220;27;20015;-38
2022/05/17 08:21:40;;;;;;;3.72;1.80;;;25.40;46.20;;;;;;5133687;27;20042;-37
2022/05/17 08:24:06;;;;;;;7.13;2.58;;;25.50;45.70;;;;;;5136010;27;20019;-39
2022/05/17 08:29:17;;;;;;;10.45;2.20;;;25.70;45.50;;;;;;5135061;27;20080;-38
2022/05/17 08:31:42;;;;;;;7.57;1.90;;;25.80;45.20;;;;;;5133281;27;20079;-38
2022/05/17 08:34:28;;;;;;;6.43;1.98;;;26.00;44.80;;;;;;5133901;27;20027;-38
2022/05/17 08:36:54;;;;;;;12.05;2.70;;;26.00;44.70;;;;;;5133251;27;20027;-38
2022/05/17 08:39:20;;;;;;;7.47;2.53;;;26.00;44.80;;;;;;5133041;27;20248;-39
2022/05/17 08:41:52;;;;;;;12.90;3.17;;;26.00;44.80;;;;;;5132962;27;20521;-38
2022/05/17 08:44:21;;;;;;;8.00;2.28;;;26.10;44.90;;;;;;5133270;27;20031;-38
2022/05/17 08:47:21;;;;;;;12.50;2.33;;;26.10;45.00;;;;;;5134762;27;20015;-38
2022/05/17 08:49:56;;;;;;;9.98;2.85;;;26.00;45.10;;;;;;5114796;27;20280;-38
2022/05/17 08:52:23;;;;;;;7.38;2.30;;;26.10;45.10;;;;;;5134006;27;20019;-38
2022/05/17 08:54:51;;;;;;;7.07;2.17;;;26.40;44.70;;;;;;5132331;27;20015;-39
2022/05/17 08:57:47;;;;;;;8.10;2.65;;;26.40;44.60;;;;;;5133057;28;20090;-40
2022/05/17 09:00:41;;;;;;;4.47;2.25;;;26.30;44.60;;;;;;5132570;28;20011;-39
2022/05/17 09:03:30;;;;;;;6.85;2.33;;;26.10;45.10;;;;;;5117752;28;20354;-41
2022/05/17 09:06:22;;;;;;;4.95;2.33;;;26.10;45.20;;;;;;5134701;27;20151;-39
2022/05/17 09:09:01;;;;;;;9.95;2.92;;;26.20;45.20;;;;;;5121049;27;20011;-41
2022/05/17 09:11:35;;;;;;;11.02;3.22;;;26.30;45.10;;;;;;5120185;27;20039;-39
2022/05/17 09:14:14;;;;;;;6.93;2.40;;;26.20;45.30;;;;;;5137116;27;20023;-39
2022/05/17 09:16:42;;;;;;;8.20;2.75;;;26.30;45.20;;;;;;5137193;27;20025;-39
2022/05/17 09:19:08;;;;;;;6.78;3.38;;;26.20;45.60;;;;;;5119363;27;20098;-39
2022/05/17 09:21:36;;;;;;;8.35;2.50;;;26.40;45.10;;;;;;5137969;27;20067;-40
2022/05/17 09:24:08;;;;;;;7.20;2.85;;;26.50;44.90;;;;;;5138397;27;20018;-40
2022/05/17 09:26:34;;;;;;;6.78;2.30;;;26.60;44.90;;;;;;5138776;27;20106;-40
2022/05/17 09:29:03;;;;;;;8.20;2.85;;;26.70;45.00;;;;;;5138677;27;20477;-41
2022/05/17 09:31:31;;;;;;;8.05;2.50;;;26.80;44.90;;;;;;5120150;27;20023;-40
2022/05/17 09:33:59;;;;;;;7.70;2.83;;;26.70;45.00;;;;;;5137996;27;20015;-41
2022/05/17 09:36:29;;;;;;;8.98;3.20;;;26.70;45.00;;;;;;5119718;27;20039;-40
2022/05/17 09:38:58;;;;;;;7.03;2.83;;;26.80;44.80;;;;;;5138468;27;20035;-41
2022/05/17 09:41:34;;;;;;;10.35;2.55;;;26.80;44.50;;;;;;5137638;27;20008;-39
2022/05/17 09:44:21;;;;;;;9.05;3.05;;;26.90;44.40;;;;;;5136604;27;20023;-40
2022/05/17 09:46:48;;;;;;;3.97;2.30;;;26.80;44.80;;;;;;5138025;27;20026;-41
2022/05/17 09:52:35;;;;;;;8.73;3.05;;;26.90;44.20;;;;;;5137489;27;20057;-45
2022/05/17 09:55:09;;;;;;;8.65;3.28;;;27.10;43.80;;;;;;5137780;27;20537;-40
2022/05/17 09:57:36;;;;;;;6.15;2.55;;;27.00;44.00;;;;;;5137910;27;20015;-46
2022/05/17 10:00:12;;;;;;;7.22;3.20;;;27.10;43.80;;;;;;5138272;27;20095;-39
2022/05/17 10:02:54;;;;;;;4.82;2.30;;;27.00;43.70;;;;;;5138054;27;20003;-41
2022/05/17 10:05:25;;;;;;;6.93;2.60;;;27.20;43.50;;;;;;5138215;27;20102;-40
2022/05/17 10:07:59;;;;;;;5.55;2.25;;;27.20;43.40;;;;;;5139722;27;20039;-39
2022/05/17 10:10:31;;;;;;;5.57;2.15;;;27.20;43.50;;;;;;5140998;27;20046;-39
2022/05/17 10:13:03;;;;;;;7.03;2.35;;;26.90;43.90;;;;;;5138896;27;20034;-39
2022/05/17 10:15:29;;;;;;;7.60;2.20;;;27.00;43.60;;;;;;5120777;27;20134;-39
2022/05/17 10:18:01;;;;;;;4.55;2.20;;;27.10;43.40;;;;;;5137307;27;20016;-39
2022/05/17 10:20:32;;;;;;;4.32;2.20;;;27.00;43.70;;;;;;5137446;27;20023;-40
2022/05/17 10:22:57;;;;;;;7.60;2.30;;;27.10;43.50;;;;;;5136892;27;20064;-39
2022/05/17 10:25:41;;;;;;;4.13;2.30;;;27.10;43.50;;;;;;5138577;27;20091;-41
2022/05/17 10:28:26;;;;;;;5.32;1.88;;;27.20;43.50;;;;;;5138349;27;20096;-42
2022/05/17 10:31:01;;;;;;;8.93;2.33;;;27.40;43.00;;;;;;5138143;27;20015;-39
2022/05/17 10:33:36;;;;;;;2.95;2.00;;;27.50;42.40;;;;;;5121319;27;20103;-41
2022/05/17 10:36:04;;;;;;;4.68;2.10;;;27.50;42.20;;;;;;5119529;27;20027;-40
2022/05/17 10:38:32;;;;;;;6.05;1.98;;;27.40;42.50;;;;;;5138456;27;20016;-42
2022/05/17 10:40:58;;;;;;;4.30;1.80;;;27.40;42.00;;;;;;5121218;27;20072;-40
2022/05/17 10:43:28;;;;;;;4.13;2.00;;;27.40;41.60;;;;;;5137690;27;20003;-41
2022/05/17 10:46:33;;;;;;;3.70;1.75;;;27.50;41.00;;;;;;5117812;27;20120;-43
2022/05/17 10:48:58;;;;;;;5.15;1.55;;;27.50;41.30;;;;;;5128994;27;20122;-39
2022/05/17 10:51:56;;;;;;;5.65;1.67;;;27.60;38.80;;;;;;5133582;27;20101;-37
2022/05/17 10:54:44;;;;;;;4.70;1.63;;;27.70;39.20;;;;;;5135585;27;20027;-37
2022/05/17 10:57:18;;;;;;;4.90;1.70;;;27.50;39.60;;;;;;5135519;27;20019;-38
2022/05/17 11:00:09;;;;;;;3.42;1.50;;;27.70;38.80;;;;;;5135134;27;20019;-39
2022/05/17 11:03:07;;;;;;;6.15;1.52;;;27.80;38.70;;;;;;5133555;27;20068;-38
2022/05/17 11:06:01;;;;;;;7.35;1.50;;;27.80;38.60;;;;;;5134593;27;20066;-39
2022/05/17 11:08:52;;;;;;;6.32;1.52;;;27.60;38.80;;;;;;5133410;27;20331;-38
2022/05/17 11:11:35;;;;;;;4.53;1.33;;;27.60;37.90;;;;;;5134313;27;20023;-38
2022/05/17 11:14:07;;;;;;;3.67;1.35;;;27.60;36.60;;;;;;5134038;27;20027;-40
2022/05/17 11:16:36;;;;;;;3.90;1.40;;;27.70;35.90;;;;;;5133521;27;20106;-40
2022/05/17 11:19:16;;;;;;;5.57;1.60;;;27.70;36.30;;;;;;5132166;27;20170;-40
2022/05/17 11:21:45;;;;;;;;;;;27.80;36.50;;;;;;5133827;27;20489;-40
2022/05/17 11:24:36;;;;;;;7.35;1.63;;;27.70;36.80;;;;;;5132345;27;19982;-42
2022/05/17 11:27:36;;;;;;;7.18;1.60;;;27.70;37.60;;;;;;5133774;27;20514;-41
2022/05/17 11:30:10;;;;;;;9.95;1.50;;;27.70;37.50;;;;;;5133099;27;20020;-40
2022/05/17 11:32:38;;;;;;;5.03;1.60;;;27.70;38.00;;;;;;5133732;27;20023;-40
2022/05/17 11:35:24;;;;;;;10.00;1.98;;;27.60;38.20;;;;;;5132663;27;20075;-40
2022/05/17 11:37:50;;;;;;;4.57;1.73;;;27.70;37.80;;;;;;5132874;27;20484;-40
2022/05/17 11:40:49;;;;;;;4.32;1.67;;;27.90;37.90;;;;;;5113933;27;20103;-40
2022/05/17 11:43:42;;;;;;;10.50;1.92;;;27.70;37.00;;;;;;5131713;27;20027;-38
2022/05/17 11:46:37;;;;;;;13.57;2.25;;;27.30;39.00;;;;;;5096148;27;20111;-39
2022/05/17 11:49:12;;;;;;;17.30;2.25;;;27.20;39.70;;;;;;5133468;27;20019;-39
2022/05/17 11:51:59;;;;;;;11.10;2.72;;;27.10;40.80;;;;;;5135171;27;20030;-38
2022/05/17 11:54:48;;;;;;;23.05;4.05;;;27.20;40.80;;;;;;5135330;27;20050;-38
2022/05/17 11:57:23;;;;;;;24.67;3.08;;;27.30;40.50;;;;;;5135671;27;20019;-42
2022/05/17 11:59:53;;;;;;;19.05;2.75;;;27.40;39.90;;;;;;5135031;27;20054;-39
2022/05/17 12:02:19;;;;;;;27.23;3.05;;;27.50;39.60;;;;;;5133618;27;20011;-39
2022/05/17 12:04:46;;;;;;;27.95;3.88;;;27.50;40.10;;;;;;5134776;27;20019;-39
2022/05/17 12:07:38;;;;;;;19.00;2.45;;;27.50;40.60;;;;;;5134504;27;20500;-43
2022/05/17 12:10:12;;;;;;;17.23;2.40;;;27.50;40.40;;;;;;5130046;27;20031;-39
2022/05/17 12:12:59;;;;;;;17.55;4.13;;;27.40;40.60;;;;;;5133852;27;20015;-40
2022/05/17 12:15:58;;;;;;;47.13;18.42;;;27.60;38.80;;;;;;5134064;27;20069;-40
2022/05/17 12:18:37;;;;;;;223.82;105.07;;;27.50;40.40;;;;;;5070707;28;20499;-42
2022/05/17 12:21:11;;;;;;;116.97;59.35;;;27.70;40.40;;;;;;5053614;28;20482;-40
2022/05/17 12:23:51;;;;;;;147.20;79.00;;;28.20;38.70;;;;;;5070377;28;20158;-39
2022/05/17 12:26:45;;;;;;;108.57;55.38;;;28.30;38.70;;;;;;5053735;28;20016;-38
2022/05/17 12:32:00;;;;;;;55.30;23.27;;;28.10;38.90;;;;;;5054888;28;20126;-39
2022/05/17 12:34:26;;;;;;;37.85;15.23;;;28.00;38.30;;;;;;5070160;28;20481;-39
2022/05/17 12:36:59;;;;;;;32.17;10.50;;;28.00;37.30;;;;;;5053071;28;20447;-39
2022/05/17 12:44:59;;;;;;;24.30;8.90;;;28.20;35.80;;;;;;5056890;28;20115;-40
2022/05/17 12:47:37;;;;;;;34.05;8.10;;;28.10;36.50;;;;;;5071314;28;20078;-39
2022/05/17 12:50:03;;;;;;;23.52;6.40;;;28.00;37.50;;;;;;5055278;28;20146;-40
2022/05/17 12:52:31;;;;;;;24.95;4.95;;;28.00;37.90;;;;;;5072426;28;20013;-39
2022/05/17 12:55:18;;;;;;;25.65;4.95;;;28.00;37.60;;;;;;5129509;27;20043;-40
2022/05/17 12:57:44;;;;;;;43.95;15.05;;;28.00;37.60;;;;;;5133888;27;20008;-39
2022/05/17 13:00:24;;;;;;;40.03;16.35;;;28.00;37.40;;;;;;5132701;28;20022;-39
2022/05/17 13:02:57;;;;;;;75.07;32.05;;;27.90;37.10;;;;;;5133863;27;20057;-39
2022/05/17 13:05:43;;;;;;;72.88;25.25;;;28.00;37.00;;;;;;5134289;27;20026;-39
2022/05/17 13:08:13;;;;;;;112.00;48.60;;;28.10;37.80;;;;;;5133085;27;20038;-40
2022/05/17 13:10:43;;;;;;;116.03;45.10;;;28.30;38.90;;;;;;5133044;27;20015;-40
2022/05/17 13:13:17;;;;;;;80.88;34.35;;;28.80;37.90;;;;;;5133170;27;20382;-39
2022/05/17 13:15:57;;;;;;;56.03;21.13;;;28.70;37.50;;;;;;5131602;28;20098;-39
2022/05/17 13:18:25;;;;;;;37.95;14.52;;;28.50;37.20;;;;;;5131383;28;20015;-40